createdAt,value
2017-11-15T00:01:29.448Z,50.30
2017-11-15T00:03:57.054Z,53.07
2017-11-15T00:06:24.653Z,56.33
2017-11-15T00:08:52.249Z,73.63
2017-11-15T00:11:20.008Z,62.53
2017-11-15T00:13:47.608Z,59.40
2017-11-15T00:16:15.312Z,185.87
2017-11-15T00:18:42.910Z,65.50
2017-11-15T00:21:10.567Z,45.60
2017-11-15T00:23:38.146Z,102.63
2017-11-15T00:26:05.744Z,106.60
2017-11-15T00:28:33.323Z,119.17
2017-11-15T00:31:00.947Z,137.47
2017-11-15T00:33:28.507Z,63.10
2017-11-15T00:35:56.082Z,59.07
2017-11-15T00:38:23.741Z,84.30
2017-11-15T00:40:51.311Z,53.67
2017-11-15T00:43:18.867Z,46.37
2017-11-15T00:45:46.483Z,176.93
2017-11-15T00:48:14.100Z,145.50
2017-11-15T00:50:41.676Z,168.53
2017-11-15T00:53:09.312Z,77.73
2017-11-15T00:55:36.922Z,63.13
2017-11-15T00:58:04.523Z,66.87
2017-11-15T01:00:32.116Z,53.70
2017-11-15T01:02:59.695Z,60.27
2017-11-15T01:05:27.280Z,47.47
2017-11-15T01:07:54.874Z,57.37
2017-11-15T01:10:22.467Z,57.30
2017-11-15T01:12:50.090Z,49.60
2017-11-15T01:15:17.826Z,51.13
2017-11-15T01:17:45.421Z,50.90
2017-11-15T01:20:12.978Z,37.07
2017-11-15T01:22:40.615Z,38.57
2017-11-15T01:25:08.206Z,74.53
2017-11-15T01:27:35.792Z,47.77
2017-11-15T01:30:03.528Z,40.47
2017-11-15T01:32:31.110Z,44.73
2017-11-15T01:34:58.709Z,53.30
2017-11-15T01:37:26.404Z,138.27
2017-11-15T01:39:53.973Z,53.50
2017-11-15T01:42:21.611Z,46.70
2017-11-15T01:44:49.220Z,57.63
2017-11-15T01:47:16.852Z,55.13
2017-11-15T01:49:44.482Z,43.47
2017-11-15T01:52:12.165Z,38.87
2017-11-15T01:54:39.793Z,40.50
2017-11-15T01:57:07.620Z,43.10
2017-11-15T01:59:35.513Z,36.80
2017-11-15T02:02:03.445Z,35.23
2017-11-15T02:04:31.043Z,47.10
2017-11-15T02:06:58.623Z,48.33
2017-11-15T02:09:26.193Z,40.50
2017-11-15T02:11:53.775Z,39.57
2017-11-15T02:14:21.362Z,46.67
2017-11-15T02:16:48.966Z,55.43
2017-11-15T02:19:16.608Z,53.87
2017-11-15T02:21:44.203Z,54.97
2017-11-15T02:24:11.834Z,42.73
2017-11-15T02:26:39.417Z,54.23
2017-11-15T02:29:07.240Z,52.67
2017-11-15T02:31:34.836Z,52.60
2017-11-15T02:34:02.423Z,53.60
2017-11-15T02:36:30.072Z,60.43
2017-11-15T02:38:57.668Z,60.80
2017-11-15T02:41:25.279Z,51.47
2017-11-15T02:43:52.909Z,50.23
2017-11-15T02:46:20.560Z,44.87
2017-11-15T02:48:48.143Z,49.37
2017-11-15T02:51:15.794Z,123.93
2017-11-15T02:53:43.449Z,80.37
2017-11-15T02:56:11.321Z,55.40
2017-11-15T02:58:39.539Z,43.77
2017-11-15T03:01:09.169Z,58.37
2017-11-15T03:03:37.279Z,50.20
2017-11-15T03:06:04.874Z,44.47
2017-11-15T03:08:32.430Z,37.07
2017-11-15T03:11:00.055Z,41.40
2017-11-15T03:13:27.751Z,49.07
2017-11-15T03:15:55.344Z,38.50
2017-11-15T03:18:22.949Z,54.17
2017-11-15T03:20:50.595Z,37.63
2017-11-15T03:23:18.148Z,44.80
2017-11-15T03:25:45.752Z,32.47
2017-11-15T03:28:13.400Z,40.97
2017-11-15T03:30:40.962Z,35.43
2017-11-15T03:33:08.614Z,40.57
2017-11-15T03:35:36.257Z,26.37
2017-11-15T03:38:03.823Z,26.23
2017-11-15T03:40:31.469Z,37.93
2017-11-15T03:42:59.054Z,35.67
2017-11-15T03:45:26.659Z,35.13
2017-11-15T03:47:54.879Z,38.40
2017-11-15T03:50:22.545Z,25.80
2017-11-15T03:52:50.124Z,24.40
2017-11-15T03:55:17.776Z,27.20
2017-11-15T03:57:45.420Z,27.73
2017-11-15T04:00:13.008Z,28.40
2017-11-15T04:02:40.578Z,29.20
2017-11-15T04:05:08.182Z,28.17
2017-11-15T04:07:35.797Z,31.47
2017-11-15T04:10:03.480Z,24.40
2017-11-15T04:12:31.098Z,22.33
2017-11-15T04:14:58.672Z,21.43
2017-11-15T04:17:26.266Z,17.27
2017-11-15T04:19:53.906Z,23.37
2017-11-15T04:22:21.479Z,15.93
2017-11-15T04:24:49.063Z,16.83
2017-11-15T04:27:16.638Z,17.00
2017-11-15T04:29:44.251Z,16.53
2017-11-15T04:32:11.857Z,20.57
2017-11-15T04:34:39.463Z,96.30
2017-11-15T04:37:07.100Z,27.17
2017-11-15T04:39:38.320Z,16.00
2017-11-15T04:42:05.936Z,17.63
2017-11-15T04:44:33.553Z,21.40
2017-11-15T04:47:01.149Z,48.97
2017-11-15T04:49:29.316Z,18.97
2017-11-15T04:51:56.922Z,45.43
2017-11-15T04:54:24.524Z,30.60
2017-11-15T04:56:52.123Z,25.50
2017-11-15T04:59:19.740Z,31.17
2017-11-15T05:01:47.404Z,28.83
2017-11-15T05:04:14.978Z,25.30
2017-11-15T05:06:42.549Z,20.07
2017-11-15T05:09:10.346Z,23.83
2017-11-15T05:11:38.018Z,31.33
2017-11-15T05:14:05.628Z,23.90
2017-11-15T05:16:33.254Z,27.83
2017-11-15T05:19:00.899Z,20.20
2017-11-15T05:21:28.466Z,21.60
2017-11-15T05:23:56.037Z,27.47
2017-11-15T05:26:23.619Z,19.13
2017-11-15T05:28:51.190Z,21.60
2017-11-15T05:31:18.959Z,27.93
2017-11-15T05:33:46.534Z,23.87
2017-11-15T05:36:14.087Z,28.30
2017-11-15T05:38:41.693Z,29.77
2017-11-15T05:41:09.537Z,21.10
2017-11-15T05:43:37.164Z,30.03
2017-11-15T05:46:04.743Z,25.90
2017-11-15T05:48:32.333Z,27.67
2017-11-15T05:50:59.957Z,31.30
2017-11-15T05:53:27.547Z,26.13
2017-11-15T05:55:55.143Z,28.40
2017-11-15T05:58:22.701Z,28.43
2017-11-15T06:00:50.287Z,31.37
2017-11-15T06:03:17.898Z,25.10
2017-11-15T06:05:45.453Z,27.80
2017-11-15T06:08:13.045Z,26.37
2017-11-15T06:10:40.651Z,18.33
2017-11-15T06:13:08.352Z,17.90
2017-11-15T06:15:36.033Z,18.43
2017-11-15T06:18:03.967Z,15.70
2017-11-15T06:20:31.640Z,13.13
2017-11-15T06:22:59.227Z,18.63
2017-11-15T06:25:26.799Z,17.27
2017-11-15T06:27:54.442Z,17.40
2017-11-15T06:30:22.077Z,14.30
2017-11-15T06:32:49.721Z,18.23
2017-11-15T06:35:17.323Z,30.33
2017-11-15T06:37:44.933Z,29.50
2017-11-15T06:40:12.512Z,26.17
2017-11-15T06:42:40.080Z,35.80
2017-11-15T06:45:07.730Z,26.70
2017-11-15T06:47:35.783Z,27.70
2017-11-15T06:50:03.348Z,34.20
2017-11-15T06:52:30.921Z,36.97
2017-11-15T06:54:58.507Z,29.93
2017-11-15T06:57:26.068Z,30.03
2017-11-15T06:59:53.663Z,42.50
2017-11-15T07:02:21.274Z,32.43
2017-11-15T07:04:48.856Z,31.47
2017-11-15T07:07:17.079Z,26.10
2017-11-15T07:09:44.724Z,26.77
2017-11-15T07:12:12.384Z,34.17
2017-11-15T07:14:40.528Z,45.90
2017-11-15T07:17:08.109Z,29.70
2017-11-15T07:19:35.687Z,28.40
2017-11-15T07:22:03.748Z,32.87
2017-11-15T07:24:31.368Z,30.87
2017-11-15T07:26:58.915Z,29.23
2017-11-15T07:29:26.497Z,30.40
2017-11-15T07:31:54.110Z,29.50
2017-11-15T07:34:21.676Z,35.60
2017-11-15T07:36:49.261Z,27.57
2017-11-15T07:39:16.892Z,40.07
2017-11-15T07:41:44.449Z,42.10
2017-11-15T07:44:12.014Z,43.63
2017-11-15T07:46:39.594Z,57.67
2017-11-15T07:49:07.267Z,67.33
2017-11-15T07:51:34.889Z,52.93
2017-11-15T07:54:02.597Z,47.70
2017-11-15T07:56:30.169Z,41.13
2017-11-15T07:58:57.745Z,47.00
2017-11-15T08:01:25.311Z,51.23
2017-11-15T08:03:52.875Z,54.40
2017-11-15T08:06:20.489Z,49.77
2017-11-15T08:08:48.054Z,45.43
2017-11-15T08:11:15.638Z,50.00
2017-11-15T08:13:43.270Z,51.07
2017-11-15T08:16:10.902Z,49.60
2017-11-15T08:18:38.487Z,39.90
2017-11-15T08:21:06.075Z,50.10
2017-11-15T08:23:33.750Z,53.63
2017-11-15T08:26:01.334Z,55.50
2017-11-15T08:28:28.943Z,49.70
2017-11-15T08:30:56.536Z,37.43
2017-11-15T08:33:24.119Z,43.40
2017-11-15T08:35:51.709Z,38.17
2017-11-15T08:38:19.287Z,44.20
2017-11-15T08:40:46.878Z,35.30
2017-11-15T08:43:14.523Z,47.50
2017-11-15T08:45:43.013Z,40.70
2017-11-15T08:48:10.562Z,39.50
2017-11-15T08:50:38.214Z,38.63
2017-11-15T08:53:05.825Z,35.13
2017-11-15T08:55:33.372Z,33.70
2017-11-15T08:58:00.985Z,39.13
2017-11-15T09:00:29.556Z,37.93
2017-11-15T09:02:57.095Z,46.00
2017-11-15T09:05:24.673Z,44.73
2017-11-15T09:07:52.274Z,44.17
2017-11-15T09:10:19.971Z,37.77
2017-11-15T09:12:47.527Z,37.33
2017-11-15T09:15:15.155Z,33.60
2017-11-15T09:17:42.692Z,41.47
2017-11-15T09:20:10.234Z,42.93
2017-11-15T09:22:37.865Z,38.37
2017-11-15T09:25:05.521Z,38.93
2017-11-15T09:27:33.093Z,38.10
2017-11-15T09:30:03.602Z,38.93
2017-11-15T09:32:31.170Z,38.57
2017-11-15T09:34:58.754Z,43.03
2017-11-15T09:37:26.464Z,39.13
2017-11-15T09:39:54.024Z,48.00
2017-11-15T09:42:21.604Z,37.73
2017-11-15T09:44:49.225Z,50.43
2017-11-15T09:47:16.850Z,47.07
2017-11-15T09:49:44.444Z,58.77
2017-11-15T09:52:12.022Z,47.30
2017-11-15T09:54:39.610Z,48.93
2017-11-15T09:57:07.195Z,61.00
2017-11-15T09:59:34.784Z,46.50
2017-11-15T10:02:02.661Z,38.60
2017-11-15T10:04:30.257Z,36.67
2017-11-15T10:06:58.301Z,50.30
2017-11-15T10:09:25.853Z,49.97
2017-11-15T10:11:53.459Z,40.97
2017-11-15T10:14:23.152Z,39.80
2017-11-15T10:16:50.825Z,42.10
2017-11-15T10:19:18.404Z,38.70
2017-11-15T10:21:46.111Z,43.20
2017-11-15T10:24:13.841Z,49.17
2017-11-15T10:26:41.487Z,46.13
2017-11-15T10:29:10.167Z,34.77
2017-11-15T10:31:37.991Z,40.00
2017-11-15T10:34:05.657Z,40.20
2017-11-15T10:36:33.296Z,42.30
2017-11-15T10:39:01.045Z,35.90
2017-11-15T10:41:28.644Z,25.57
2017-11-15T10:43:56.262Z,31.60
2017-11-15T10:46:24.039Z,28.13
2017-11-15T10:48:51.766Z,27.37
2017-11-15T10:51:21.171Z,35.63
2017-11-15T10:53:48.871Z,28.90
2017-11-15T10:56:16.581Z,29.30
2017-11-15T10:58:44.405Z,46.93
2017-11-15T11:01:12.935Z,41.17
2017-11-15T11:03:42.372Z,35.00
2017-11-15T11:06:12.807Z,32.23
2017-11-15T11:08:41.561Z,28.60
2017-11-15T11:11:11.034Z,31.57
2017-11-15T11:13:38.926Z,35.87
2017-11-15T11:16:08.441Z,35.60
2017-11-15T11:18:37.856Z,32.37
2017-11-15T11:21:08.144Z,36.67
2017-11-15T11:23:36.055Z,33.70
2017-11-15T11:26:06.833Z,41.27
2017-11-15T11:28:34.759Z,28.60
2017-11-15T11:31:02.463Z,53.03
2017-11-15T11:33:30.224Z,44.87
2017-11-15T11:35:58.887Z,31.60
2017-11-15T11:38:28.540Z,35.93
2017-11-15T11:40:56.238Z,35.83
2017-11-15T11:43:25.539Z,33.73
2017-11-15T11:45:53.339Z,37.40
2017-11-15T11:48:21.017Z,34.13
2017-11-15T11:50:48.762Z,33.50
2017-11-15T11:53:17.151Z,35.30
2017-11-15T11:55:44.777Z,34.47
2017-11-15T11:58:13.810Z,35.67
2017-11-15T12:00:46.215Z,29.97
2017-11-15T12:03:14.284Z,32.40
2017-11-15T12:05:42.202Z,30.77
2017-11-15T12:08:10.235Z,28.17
2017-11-15T12:10:50.768Z,30.03
2017-11-15T12:13:19.190Z,28.57
2017-11-15T12:15:46.818Z,28.50
2017-11-15T12:18:15.134Z,30.33
2017-11-15T12:20:42.824Z,27.43
2017-11-15T12:23:10.828Z,28.27
2017-11-15T12:25:54.402Z,25.50
2017-11-15T12:28:23.223Z,24.27
2017-11-15T12:33:26.309Z,24.80
2017-11-15T12:35:53.974Z,23.20
2017-11-15T12:38:21.697Z,28.60
2017-11-15T12:40:49.387Z,23.73
2017-11-15T12:43:17.123Z,25.90
2017-11-15T12:45:44.818Z,28.10
2017-11-15T12:48:12.710Z,27.53
2017-11-15T12:50:40.352Z,40.13
2017-11-15T12:53:08.598Z,34.10
2017-11-15T12:55:37.023Z,37.50
2017-11-15T12:58:04.702Z,36.10
2017-11-15T13:00:32.419Z,41.43
2017-11-15T13:03:01.672Z,31.47
2017-11-15T13:05:30.496Z,43.73
2017-11-15T13:07:58.197Z,38.10
2017-11-15T13:13:18.882Z,36.07
2017-11-15T13:15:46.586Z,29.67
2017-11-15T13:18:14.350Z,39.00
2017-11-15T13:20:42.088Z,36.20
2017-11-15T13:23:10.053Z,32.20
2017-11-15T13:25:37.767Z,39.00
2017-11-15T13:28:05.551Z,38.00
2017-11-15T13:30:33.326Z,40.50
2017-11-15T13:33:00.965Z,34.10
2017-11-15T13:35:29.901Z,31.90
2017-11-15T13:37:57.713Z,31.40
2017-11-15T13:40:25.451Z,38.10
2017-11-15T13:42:53.152Z,39.33
2017-11-15T13:45:20.917Z,39.03
2017-11-15T13:47:48.631Z,37.93
2017-11-15T13:50:16.331Z,40.40
2017-11-15T13:52:44.944Z,47.07
2017-11-15T13:55:13.044Z,39.73
2017-11-15T13:57:40.956Z,41.03
2017-11-15T14:00:08.758Z,77.50
2017-11-15T14:02:36.457Z,52.63
2017-11-15T14:05:04.200Z,51.80
2017-11-15T14:07:31.900Z,56.10
2017-11-15T14:09:59.532Z,49.37
2017-11-15T14:12:27.844Z,43.37
2017-11-15T14:14:56.246Z,65.63
2017-11-15T14:17:24.125Z,36.50
2017-11-15T14:19:51.975Z,44.43
2017-11-15T14:22:19.802Z,50.13
2017-11-15T14:24:47.512Z,39.00
2017-11-15T14:27:15.215Z,45.57
2017-11-15T14:29:42.867Z,53.00
2017-11-15T14:32:10.545Z,43.40
2017-11-15T14:34:38.250Z,50.33
2017-11-15T14:37:07.167Z,56.33
2017-11-15T14:39:35.956Z,48.00
2017-11-15T14:42:03.761Z,44.00
2017-11-15T14:44:31.567Z,41.83
2017-11-15T14:46:59.250Z,47.47
2017-11-15T14:49:27.846Z,37.97
2017-11-15T14:51:55.637Z,35.60
2017-11-15T14:54:24.697Z,32.30
2017-11-15T14:56:52.482Z,40.73
2017-11-15T14:59:20.133Z,39.00
2017-11-15T15:01:47.997Z,33.23
2017-11-15T15:04:15.838Z,28.43
2017-11-15T15:06:43.631Z,35.67
2017-11-15T15:09:11.227Z,31.47
2017-11-15T15:11:38.827Z,31.47
2017-11-15T15:14:06.392Z,38.70
2017-11-15T15:16:34.797Z,31.20
2017-11-15T15:19:02.357Z,33.67
2017-11-15T15:21:29.923Z,35.50
2017-11-15T15:23:57.662Z,39.20
2017-11-15T15:26:25.294Z,36.93
2017-11-15T15:28:52.901Z,41.63
2017-11-15T15:31:20.461Z,34.43
2017-11-15T15:33:48.032Z,31.00
2017-11-15T15:36:18.123Z,46.20
2017-11-15T15:38:45.702Z,40.30
2017-11-15T15:41:13.568Z,35.30
2017-11-15T15:43:41.138Z,42.20
2017-11-15T15:46:08.698Z,63.20
2017-11-15T15:48:36.306Z,49.13
2017-11-15T15:51:03.863Z,34.17
2017-11-15T15:53:31.416Z,37.07
2017-11-15T15:56:01.270Z,50.10
2017-11-15T15:58:28.909Z,41.00
2017-11-15T16:00:56.459Z,50.43
2017-11-15T16:03:24.046Z,38.60
2017-11-15T16:05:51.631Z,42.03
2017-11-15T16:08:19.183Z,56.57
2017-11-15T16:10:46.772Z,41.93
2017-11-15T16:13:14.339Z,41.60
2017-11-15T16:15:41.891Z,43.20
2017-11-15T16:18:09.498Z,37.93
2017-11-15T16:20:37.052Z,50.03
2017-11-15T16:23:04.701Z,43.23
2017-11-15T16:25:32.306Z,50.97
2017-11-15T16:27:59.876Z,40.07
2017-11-15T16:30:27.440Z,40.20
2017-11-15T16:32:55.088Z,39.63
2017-11-15T16:35:22.661Z,51.53
2017-11-15T16:37:50.221Z,69.47
2017-11-15T16:40:18.132Z,47.53
2017-11-15T16:42:45.750Z,57.27
2017-11-15T16:45:17.017Z,59.07
2017-11-15T16:47:44.628Z,44.93
2017-11-15T16:50:12.199Z,45.00
2017-11-15T16:52:39.757Z,36.83
2017-11-15T16:55:07.363Z,40.40
2017-11-15T16:57:34.940Z,45.53
2017-11-15T17:00:02.565Z,48.73
2017-11-15T17:02:30.444Z,56.50
2017-11-15T17:04:58.012Z,56.33
2017-11-15T17:07:25.593Z,58.03
2017-11-15T17:09:53.177Z,56.20
2017-11-15T17:12:20.764Z,90.80
2017-11-15T17:14:48.346Z,76.80
2017-11-15T17:17:15.974Z,83.90
2017-11-15T17:19:43.552Z,88.63
2017-11-15T17:22:11.128Z,63.80
2017-11-15T17:24:39.117Z,63.77
2017-11-15T17:27:06.953Z,69.30
2017-11-15T17:29:34.541Z,78.83
2017-11-15T17:32:02.258Z,89.00
2017-11-15T17:34:30.029Z,85.23
2017-11-15T17:36:57.604Z,91.53
2017-11-15T17:39:25.191Z,65.23
2017-11-15T17:41:52.806Z,66.73
2017-11-15T17:44:20.444Z,66.27
2017-11-15T17:46:48.270Z,69.07
2017-11-15T17:49:15.843Z,59.03
2017-11-15T17:51:43.435Z,53.60
2017-11-15T17:54:11.055Z,60.80
2017-11-15T17:56:38.666Z,49.37
2017-11-15T17:59:06.265Z,44.83
2017-11-15T18:01:33.849Z,55.97
2017-11-15T18:04:01.434Z,59.60
2017-11-15T18:06:29.010Z,48.10
2017-11-15T18:08:56.598Z,45.63
2017-11-15T18:11:25.747Z,64.27
2017-11-15T18:13:58.354Z,73.53
2017-11-15T18:16:25.937Z,81.30
2017-11-15T18:18:53.555Z,70.60
2017-11-15T18:21:21.125Z,70.17
2017-11-15T18:23:48.758Z,68.73
2017-11-15T18:26:16.580Z,63.50
2017-11-15T18:28:44.281Z,66.93
2017-11-15T18:31:12.108Z,78.47
2017-11-15T18:33:40.558Z,73.23
2017-11-15T18:36:08.121Z,66.97
2017-11-15T18:38:36.527Z,74.30
2017-11-15T18:41:04.168Z,74.30
2017-11-15T18:43:31.780Z,93.70
2017-11-15T18:46:04.372Z,75.30
2017-11-15T18:48:31.989Z,64.63
2017-11-15T18:50:59.575Z,62.80
2017-11-15T18:53:27.151Z,86.37
2017-11-15T18:55:54.772Z,86.30
2017-11-15T18:58:23.016Z,90.00
2017-11-15T19:00:50.584Z,107.07
2017-11-15T19:03:18.184Z,82.93
2017-11-15T19:05:45.766Z,83.90
2017-11-15T19:08:13.356Z,85.50
2017-11-15T19:10:41.453Z,73.87
2017-11-15T19:13:10.450Z,74.37
2017-11-15T19:15:38.610Z,59.20
2017-11-15T19:18:06.888Z,66.57
2017-11-15T19:20:34.487Z,63.23
2017-11-15T19:23:02.079Z,47.70
2017-11-15T19:25:29.658Z,34.00
2017-11-15T19:27:58.382Z,38.57
2017-11-15T19:30:31.413Z,43.47
2017-11-15T19:33:01.437Z,31.13
2017-11-15T19:35:29.171Z,42.80
2017-11-15T19:37:56.800Z,47.23
2017-11-15T19:40:24.485Z,45.27
2017-11-15T19:42:52.069Z,50.90
2017-11-15T19:45:19.656Z,58.03
2017-11-15T19:47:47.235Z,53.83
2017-11-15T19:50:14.867Z,50.50
2017-11-15T19:52:42.427Z,73.80
2017-11-15T19:55:10.006Z,83.50
2017-11-15T19:57:37.633Z,81.23
2017-11-15T20:00:06.783Z,66.97
2017-11-15T20:02:35.114Z,65.73
2017-11-15T20:05:02.687Z,56.07
2017-11-15T20:07:30.317Z,51.63
2017-11-15T20:09:57.879Z,55.07
2017-11-15T20:12:25.475Z,60.17
2017-11-15T20:14:53.027Z,70.87
2017-11-15T20:17:22.053Z,50.50
2017-11-15T20:19:53.479Z,48.97
2017-11-15T20:22:21.157Z,36.07
2017-11-15T20:24:49.822Z,40.10
2017-11-15T20:27:17.448Z,36.20
2017-11-15T20:29:46.706Z,41.50
2017-11-15T20:32:14.279Z,50.50
2017-11-15T20:34:44.516Z,43.50
2017-11-15T20:37:13.081Z,45.73
2017-11-15T20:39:40.884Z,31.63
2017-11-15T20:42:08.448Z,23.97
2017-11-15T20:44:36.045Z,37.33
2017-11-15T20:47:04.010Z,33.17
2017-11-15T20:49:32.547Z,31.77
2017-11-15T20:52:00.111Z,42.43
2017-11-15T20:54:27.711Z,31.47
2017-11-15T20:56:55.269Z,56.43
2017-11-15T20:59:22.861Z,61.33
2017-11-15T21:01:50.459Z,76.07
2017-11-15T21:04:18.075Z,47.53
2017-11-15T21:06:45.728Z,40.67
2017-11-15T21:09:13.321Z,38.63
2017-11-15T21:11:40.953Z,25.80
2017-11-15T21:14:08.547Z,30.40
2017-11-15T21:16:36.148Z,32.23
2017-11-15T21:19:03.723Z,22.23
2017-11-15T21:21:31.357Z,21.43
2017-11-15T21:23:58.941Z,23.93
2017-11-15T21:26:28.442Z,18.43
2017-11-15T21:28:56.864Z,29.67
2017-11-15T21:31:24.494Z,28.83
2017-11-15T21:33:52.114Z,24.20
2017-11-15T21:38:58.257Z,26.60
2017-11-15T21:41:25.923Z,29.30
2017-11-15T21:43:53.543Z,33.97
2017-11-15T21:46:21.432Z,36.43
2017-11-15T21:48:49.002Z,65.97
2017-11-15T21:51:16.567Z,71.20
2017-11-15T21:53:44.966Z,147.97
2017-11-15T21:56:12.559Z,37.27
2017-11-15T21:58:40.110Z,42.10
2017-11-15T22:01:07.912Z,35.13
2017-11-15T22:03:35.509Z,30.90
2017-11-15T22:06:03.081Z,28.53
2017-11-15T22:08:30.653Z,26.37
2017-11-15T22:10:58.251Z,26.87
2017-11-15T22:13:25.897Z,31.73
2017-11-15T22:15:53.461Z,34.07
2017-11-15T22:18:21.029Z,33.30
2017-11-15T22:20:48.624Z,28.00
2017-11-15T22:23:16.190Z,43.60
2017-11-15T22:25:43.799Z,41.33
2017-11-15T22:28:11.542Z,47.00
2017-11-15T22:30:39.110Z,34.20
2017-11-15T22:33:06.814Z,42.53
2017-11-15T22:35:34.386Z,33.30
2017-11-15T22:38:01.988Z,33.30
2017-11-15T22:40:29.583Z,35.73
2017-11-15T22:42:57.149Z,28.57
2017-11-15T22:45:24.767Z,25.70
2017-11-15T22:47:52.359Z,36.10
2017-11-15T22:50:19.954Z,46.80
2017-11-15T22:52:47.571Z,40.80
2017-11-15T22:55:15.169Z,42.67
2017-11-15T22:57:42.736Z,28.03
2017-11-15T23:00:10.384Z,27.00
2017-11-15T23:02:37.960Z,33.33
2017-11-15T23:05:05.597Z,48.40
2017-11-15T23:07:33.211Z,47.73
2017-11-15T23:10:00.796Z,42.77
2017-11-15T23:15:19.318Z,40.47
2017-11-15T23:17:46.929Z,44.23
2017-11-15T23:20:15.450Z,45.70
2017-11-15T23:22:43.105Z,48.97
2017-11-15T23:25:10.771Z,51.90
2017-11-15T23:27:38.425Z,40.90
2017-11-15T23:30:06.910Z,50.10
2017-11-15T23:32:34.489Z,54.10
2017-11-15T23:35:02.048Z,52.70
2017-11-15T23:37:29.649Z,50.57
2017-11-15T23:39:57.291Z,43.77
2017-11-15T23:42:24.939Z,52.37
2017-11-15T23:44:53.832Z,51.30
2017-11-15T23:47:21.402Z,46.10
2017-11-15T23:49:48.975Z,43.63
2017-11-15T23:52:16.581Z,52.50
2017-11-15T23:54:44.164Z,45.80
2017-11-15T23:57:11.927Z,43.03
2017-11-15T23:59:39.512Z,42.67
